sensor_id;sensor_type;location;lat;lon;timestamp;P1;durP1;ratioP1;P2;durP2;ratioP2
81912;SDS011;71377;50.698;7.164;2023-07-31T00:00:58;2.70;;;1.75;;
81912;SDS011;71377;50.698;7.164;2023-07-31T00:03:24;6.97;;;2.13;;
81912;SDS011;71377;50.698;7.164;2023-07-31T00:05:51;5.43;;;2.10;;
81912;SDS011;71377;50.698;7.164;2023-07-31T00:08:17;4.75;;;2.03;;
81912;SDS011;71377;50.698;7.164;2023-07-31T00:10:44;3.83;;;2.10;;
81912;SDS011;71377;50.698;7.164;2023-07-31T00:13:10;4.53;;;2.35;;
81912;SDS011;71377;50.698;7.164;2023-07-31T00:15:38;5.60;;;2.45;;
81912;SDS011;71377;50.698;7.164;2023-07-31T00:18:04;3.72;;;2.00;;
81912;SDS011;71377;50.698;7.164;2023-07-31T00:20:31;2.85;;;1.58;;
81912;SDS011;71377;50.698;7.164;2023-07-31T00:22:57;4.85;;;2.00;;
81912;SDS011;71377;50.698;7.164;2023-07-31T00:25:24;3.25;;;2.03;;
81912;SDS011;71377;50.698;7.164;2023-07-31T00:27:50;3.70;;;2.10;;
81912;SDS011;71377;50.698;7.164;2023-07-31T00:30:17;2.67;;;1.85;;
81912;SDS011;71377;50.698;7.164;2023-07-31T00:32:43;4.68;;;1.95;;
81912;SDS011;71377;50.698;7.164;2023-07-31T00:35:10;5.43;;;2.33;;
81912;SDS011;71377;50.698;7.164;2023-07-31T00:37:36;3.42;;;1.70;;
81912;SDS011;71377;50.698;7.164;2023-07-31T00:40:03;3.22;;;1.73;;
81912;SDS011;71377;50.698;7.164;2023-07-31T00:42:29;2.83;;;1.75;;
81912;SDS011;71377;50.698;7.164;2023-07-31T00:44:56;4.18;;;1.85;;
81912;SDS011;71377;50.698;7.164;2023-07-31T00:47:22;4.80;;;2.03;;
81912;SDS011;71377;50.698;7.164;2023-07-31T00:49:49;4.50;;;1.60;;
81912;SDS011;71377;50.698;7.164;2023-07-31T00:52:15;3.58;;;1.80;;
81912;SDS011;71377;50.698;7.164;2023-07-31T00:54:43;4.20;;;1.80;;
81912;SDS011;71377;50.698;7.164;2023-07-31T00:57:09;2.38;;;1.70;;
81912;SDS011;71377;50.698;7.164;2023-07-31T00:59:36;3.38;;;1.63;;
81912;SDS011;71377;50.698;7.164;2023-07-31T01:02:02;3.17;;;1.83;;
81912;SDS011;71377;50.698;7.164;2023-07-31T01:04:30;2.92;;;1.70;;
81912;SDS011;71377;50.698;7.164;2023-07-31T01:09:45;4.03;;;1.60;;
81912;SDS011;71377;50.698;7.164;2023-07-31T01:12:18;4.78;;;1.83;;
81912;SDS011;71377;50.698;7.164;2023-07-31T01:15:08;2.22;;;1.48;;
81912;SDS011;71377;50.698;7.164;2023-07-31T01:17:38;6.93;;;1.85;;
81912;SDS011;71377;50.698;7.164;2023-07-31T01:20:10;2.55;;;1.67;;
81912;SDS011;71377;50.698;7.164;2023-07-31T01:22:48;2.78;;;1.60;;
81912;SDS011;71377;50.698;7.164;2023-07-31T01:31:33;4.10;;;1.80;;
81912;SDS011;71377;50.698;7.164;2023-07-31T01:34:01;2.80;;;1.52;;
81912;SDS011;71377;50.698;7.164;2023-07-31T01:36:29;4.28;;;1.80;;
81912;SDS011;71377;50.698;7.164;2023-07-31T01:39:00;3.10;;;1.83;;
81912;SDS011;71377;50.698;7.164;2023-07-31T01:41:27;3.88;;;2.00;;
81912;SDS011;71377;50.698;7.164;2023-07-31T01:43:54;3.42;;;2.10;;
81912;SDS011;71377;50.698;7.164;2023-07-31T01:46:20;3.58;;;1.85;;
81912;SDS011;71377;50.698;7.164;2023-07-31T01:48:47;4.35;;;1.85;;
81912;SDS011;71377;50.698;7.164;2023-07-31T01:51:13;3.97;;;2.10;;
81912;SDS011;71377;50.698;7.164;2023-07-31T01:53:40;5.00;;;2.25;;
81912;SDS011;71377;50.698;7.164;2023-07-31T01:56:06;3.47;;;2.05;;
81912;SDS011;71377;50.698;7.164;2023-07-31T01:58:32;4.85;;;2.25;;
81912;SDS011;71377;50.698;7.164;2023-07-31T02:00:59;4.22;;;1.90;;
81912;SDS011;71377;50.698;7.164;2023-07-31T02:03:25;4.68;;;2.10;;
81912;SDS011;71377;50.698;7.164;2023-07-31T02:05:53;7.53;;;2.20;;
81912;SDS011;71377;50.698;7.164;2023-07-31T02:08:20;4.00;;;2.03;;
81912;SDS011;71377;50.698;7.164;2023-07-31T02:10:46;6.75;;;2.63;;
81912;SDS011;71377;50.698;7.164;2023-07-31T02:13:13;4.10;;;2.30;;
81912;SDS011;71377;50.698;7.164;2023-07-31T02:15:39;6.63;;;2.08;;
81912;SDS011;71377;50.698;7.164;2023-07-31T02:18:06;6.72;;;2.35;;
81912;SDS011;71377;50.698;7.164;2023-07-31T02:20:35;4.22;;;2.03;;
81912;SDS011;71377;50.698;7.164;2023-07-31T02:23:02;3.92;;;2.08;;
81912;SDS011;71377;50.698;7.164;2023-07-31T02:25:28;4.57;;;2.35;;
81912;SDS011;71377;50.698;7.164;2023-07-31T02:27:55;3.13;;;1.75;;
81912;SDS011;71377;50.698;7.164;2023-07-31T02:30:21;3.22;;;1.90;;
81912;SDS011;71377;50.698;7.164;2023-07-31T02:32:48;3.50;;;2.05;;
81912;SDS011;71377;50.698;7.164;2023-07-31T02:35:15;4.60;;;1.98;;
81912;SDS011;71377;50.698;7.164;2023-07-31T02:37:42;5.93;;;2.50;;
81912;SDS011;71377;50.698;7.164;2023-07-31T02:40:09;3.58;;;2.20;;
81912;SDS011;71377;50.698;7.164;2023-07-31T02:42:35;6.05;;;2.35;;
81912;SDS011;71377;50.698;7.164;2023-07-31T02:45:02;5.80;;;2.50;;
81912;SDS011;71377;50.698;7.164;2023-07-31T02:47:28;4.47;;;2.35;;
81912;SDS011;71377;50.698;7.164;2023-07-31T02:49:55;4.38;;;2.30;;
81912;SDS011;71377;50.698;7.164;2023-07-31T02:52:22;4.40;;;2.28;;
81912;SDS011;71377;50.698;7.164;2023-07-31T02:54:48;5.63;;;2.30;;
81912;SDS011;71377;50.698;7.164;2023-07-31T02:57:15;4.78;;;2.10;;
81912;SDS011;71377;50.698;7.164;2023-07-31T02:59:42;3.97;;;2.28;;
81912;SDS011;71377;50.698;7.164;2023-07-31T03:02:11;5.63;;;2.60;;
81912;SDS011;71377;50.698;7.164;2023-07-31T03:04:39;5.10;;;2.55;;
81912;SDS011;71377;50.698;7.164;2023-07-31T03:07:06;7.35;;;2.20;;
81912;SDS011;71377;50.698;7.164;2023-07-31T03:09:32;7.70;;;2.03;;
81912;SDS011;71377;50.698;7.164;2023-07-31T03:11:59;5.57;;;2.13;;
81912;SDS011;71377;50.698;7.164;2023-07-31T03:14:25;5.53;;;2.58;;
81912;SDS011;71377;50.698;7.164;2023-07-31T03:16:53;5.40;;;2.60;;
81912;SDS011;71377;50.698;7.164;2023-07-31T03:19:19;3.83;;;2.25;;
81912;SDS011;71377;50.698;7.164;2023-07-31T03:21:46;3.42;;;2.25;;
81912;SDS011;71377;50.698;7.164;2023-07-31T03:24:12;5.72;;;2.45;;
81912;SDS011;71377;50.698;7.164;2023-07-31T03:26:39;5.60;;;2.25;;
81912;SDS011;71377;50.698;7.164;2023-07-31T03:29:07;4.00;;;2.00;;
81912;SDS011;71377;50.698;7.164;2023-07-31T03:31:34;8.05;;;2.78;;
81912;SDS011;71377;50.698;7.164;2023-07-31T03:34:01;4.97;;;2.20;;
81912;SDS011;71377;50.698;7.164;2023-07-31T03:36:27;5.55;;;2.15;;
81912;SDS011;71377;50.698;7.164;2023-07-31T03:38:54;5.13;;;2.30;;
81912;SDS011;71377;50.698;7.164;2023-07-31T03:41:20;6.07;;;2.20;;
81912;SDS011;71377;50.698;7.164;2023-07-31T03:43:49;5.53;;;2.30;;
81912;SDS011;71377;50.698;7.164;2023-07-31T03:46:22;4.93;;;2.30;;
81912;SDS011;71377;50.698;7.164;2023-07-31T03:48:49;6.88;;;2.60;;
81912;SDS011;71377;50.698;7.164;2023-07-31T03:51:16;5.00;;;2.00;;
81912;SDS011;71377;50.698;7.164;2023-07-31T03:53:43;4.45;;;2.28;;
81912;SDS011;71377;50.698;7.164;2023-07-31T03:56:10;4.60;;;2.10;;
81912;SDS011;71377;50.698;7.164;2023-07-31T03:58:37;3.65;;;2.28;;
81912;SDS011;71377;50.698;7.164;2023-07-31T04:01:03;6.50;;;2.30;;
81912;SDS011;71377;50.698;7.164;2023-07-31T04:03:30;6.30;;;2.42;;
81912;SDS011;71377;50.698;7.164;2023-07-31T04:05:56;4.85;;;2.40;;
81912;SDS011;71377;50.698;7.164;2023-07-31T04:08:23;7.82;;;2.40;;
81912;SDS011;71377;50.698;7.164;2023-07-31T04:10:50;6.13;;;2.58;;
81912;SDS011;71377;50.698;7.164;2023-07-31T04:13:16;6.07;;;2.40;;
81912;SDS011;71377;50.698;7.164;2023-07-31T04:15:47;5.20;;;2.70;;
81912;SDS011;71377;50.698;7.164;2023-07-31T04:18:14;5.78;;;2.42;;
81912;SDS011;71377;50.698;7.164;2023-07-31T04:20:41;8.57;;;2.63;;
81912;SDS011;71377;50.698;7.164;2023-07-31T04:23:07;5.43;;;2.45;;
81912;SDS011;71377;50.698;7.164;2023-07-31T04:25:34;5.93;;;2.10;;
81912;SDS011;71377;50.698;7.164;2023-07-31T04:28:01;6.03;;;2.60;;
81912;SDS011;71377;50.698;7.164;2023-07-31T04:30:27;5.72;;;2.15;;
81912;SDS011;71377;50.698;7.164;2023-07-31T04:32:54;6.03;;;2.30;;
81912;SDS011;71377;50.698;7.164;2023-07-31T04:35:20;6.40;;;2.33;;
81912;SDS011;71377;50.698;7.164;2023-07-31T04:37:47;5.78;;;2.35;;
81912;SDS011;71377;50.698;7.164;2023-07-31T04:40:16;7.88;;;2.35;;
81912;SDS011;71377;50.698;7.164;2023-07-31T04:42:42;5.28;;;2.25;;
81912;SDS011;71377;50.698;7.164;2023-07-31T04:45:09;6.07;;;2.38;;
81912;SDS011;71377;50.698;7.164;2023-07-31T04:47:35;4.10;;;2.40;;
81912;SDS011;71377;50.698;7.164;2023-07-31T04:50:02;4.78;;;2.20;;
81912;SDS011;71377;50.698;7.164;2023-07-31T04:52:28;6.05;;;2.40;;
81912;SDS011;71377;50.698;7.164;2023-07-31T04:54:55;4.22;;;2.22;;
81912;SDS011;71377;50.698;7.164;2023-07-31T04:57:21;5.60;;;2.35;;
81912;SDS011;71377;50.698;7.164;2023-07-31T04:59:48;6.55;;;2.90;;
81912;SDS011;71377;50.698;7.164;2023-07-31T05:02:16;5.35;;;3.13;;
81912;SDS011;71377;50.698;7.164;2023-07-31T05:04:43;6.78;;;2.45;;
81912;SDS011;71377;50.698;7.164;2023-07-31T05:07:09;7.82;;;2.70;;
81912;SDS011;71377;50.698;7.164;2023-07-31T05:09:36;8.50;;;2.60;;
81912;SDS011;71377;50.698;7.164;2023-07-31T05:12:04;4.55;;;2.20;;
81912;SDS011;71377;50.698;7.164;2023-07-31T05:14:31;6.53;;;2.53;;
81912;SDS011;71377;50.698;7.164;2023-07-31T05:16:57;4.07;;;2.22;;
81912;SDS011;71377;50.698;7.164;2023-07-31T05:19:24;6.25;;;2.78;;
81912;SDS011;71377;50.698;7.164;2023-07-31T05:21:50;4.38;;;2.60;;
81912;SDS011;71377;50.698;7.164;2023-07-31T05:24:16;4.40;;;2.05;;
81912;SDS011;71377;50.698;7.164;2023-07-31T05:26:43;8.27;;;2.30;;
81912;SDS011;71377;50.698;7.164;2023-07-31T05:29:09;4.22;;;2.58;;
81912;SDS011;71377;50.698;7.164;2023-07-31T05:31:36;4.30;;;2.47;;
81912;SDS011;71377;50.698;7.164;2023-07-31T05:34:04;4.25;;;2.22;;
81912;SDS011;71377;50.698;7.164;2023-07-31T05:36:30;3.95;;;2.20;;
81912;SDS011;71377;50.698;7.164;2023-07-31T05:38:57;4.38;;;2.30;;
81912;SDS011;71377;50.698;7.164;2023-07-31T05:41:23;4.45;;;2.30;;
81912;SDS011;71377;50.698;7.164;2023-07-31T05:43:50;4.57;;;2.13;;
81912;SDS011;71377;50.698;7.164;2023-07-31T05:46:17;4.82;;;2.30;;
81912;SDS011;71377;50.698;7.164;2023-07-31T05:48:44;3.53;;;2.17;;
81912;SDS011;71377;50.698;7.164;2023-07-31T05:51:10;3.22;;;2.00;;
81912;SDS011;71377;50.698;7.164;2023-07-31T05:53:36;5.55;;;2.38;;
81912;SDS011;71377;50.698;7.164;2023-07-31T05:56:06;3.35;;;2.20;;
81912;SDS011;71377;50.698;7.164;2023-07-31T05:58:33;4.05;;;2.20;;
81912;SDS011;71377;50.698;7.164;2023-07-31T06:00:59;5.68;;;2.13;;
81912;SDS011;71377;50.698;7.164;2023-07-31T06:03:25;5.05;;;2.38;;
81912;SDS011;71377;50.698;7.164;2023-07-31T06:05:52;4.90;;;2.28;;
81912;SDS011;71377;50.698;7.164;2023-07-31T06:08:18;3.83;;;2.05;;
81912;SDS011;71377;50.698;7.164;2023-07-31T06:10:45;4.30;;;2.35;;
81912;SDS011;71377;50.698;7.164;2023-07-31T06:13:11;4.25;;;2.22;;
81912;SDS011;71377;50.698;7.164;2023-07-31T06:15:38;7.00;;;2.58;;
81912;SDS011;71377;50.698;7.164;2023-07-31T06:18:05;4.63;;;2.40;;
81912;SDS011;71377;50.698;7.164;2023-07-31T06:20:34;3.50;;;2.20;;
81912;SDS011;71377;50.698;7.164;2023-07-31T06:23:01;6.10;;;2.53;;
81912;SDS011;71377;50.698;7.164;2023-07-31T06:25:27;2.95;;;2.08;;
81912;SDS011;71377;50.698;7.164;2023-07-31T06:27:54;4.30;;;2.65;;
81912;SDS011;71377;50.698;7.164;2023-07-31T06:30:20;4.97;;;2.90;;
81912;SDS011;71377;50.698;7.164;2023-07-31T06:32:48;6.53;;;2.58;;
81912;SDS011;71377;50.698;7.164;2023-07-31T06:35:15;4.53;;;2.40;;
81912;SDS011;71377;50.698;7.164;2023-07-31T06:37:41;8.07;;;3.00;;
81912;SDS011;71377;50.698;7.164;2023-07-31T06:40:10;5.82;;;2.60;;
81912;SDS011;71377;50.698;7.164;2023-07-31T06:42:37;5.50;;;2.65;;
81912;SDS011;71377;50.698;7.164;2023-07-31T06:45:04;5.95;;;2.88;;
81912;SDS011;71377;50.698;7.164;2023-07-31T06:47:31;5.30;;;2.78;;
81912;SDS011;71377;50.698;7.164;2023-07-31T06:49:58;7.05;;;2.92;;
81912;SDS011;71377;50.698;7.164;2023-07-31T06:52:24;5.15;;;2.58;;
81912;SDS011;71377;50.698;7.164;2023-07-31T06:55:00;5.10;;;2.92;;
81912;SDS011;71377;50.698;7.164;2023-07-31T06:57:29;7.13;;;2.95;;
81912;SDS011;71377;50.698;7.164;2023-07-31T06:59:56;8.73;;;2.72;;
81912;SDS011;71377;50.698;7.164;2023-07-31T07:02:22;10.05;;;3.20;;
81912;SDS011;71377;50.698;7.164;2023-07-31T07:04:49;14.07;;;3.58;;
81912;SDS011;71377;50.698;7.164;2023-07-31T07:07:16;9.02;;;2.58;;
81912;SDS011;71377;50.698;7.164;2023-07-31T07:09:44;11.10;;;3.17;;
81912;SDS011;71377;50.698;7.164;2023-07-31T07:12:11;11.52;;;3.17;;
81912;SDS011;71377;50.698;7.164;2023-07-31T07:14:38;11.27;;;3.13;;
81912;SDS011;71377;50.698;7.164;2023-07-31T07:17:04;7.75;;;3.60;;
81912;SDS011;71377;50.698;7.164;2023-07-31T07:19:31;10.00;;;3.00;;
81912;SDS011;71377;50.698;7.164;2023-07-31T07:21:58;7.10;;;2.92;;
81912;SDS011;71377;50.698;7.164;2023-07-31T07:24:28;5.40;;;2.58;;
81912;SDS011;71377;50.698;7.164;2023-07-31T07:26:54;6.50;;;2.55;;
81912;SDS011;71377;50.698;7.164;2023-07-31T07:29:21;7.80;;;2.85;;
81912;SDS011;71377;50.698;7.164;2023-07-31T07:31:48;7.18;;;2.60;;
81912;SDS011;71377;50.698;7.164;2023-07-31T07:34:15;6.75;;;2.63;;
81912;SDS011;71377;50.698;7.164;2023-07-31T07:36:41;6.18;;;2.60;;
81912;SDS011;71377;50.698;7.164;2023-07-31T07:39:09;4.50;;;2.65;;
81912;SDS011;71377;50.698;7.164;2023-07-31T07:41:36;13.75;;;3.42;;
81912;SDS011;71377;50.698;7.164;2023-07-31T07:44:04;4.28;;;2.70;;
81912;SDS011;71377;50.698;7.164;2023-07-31T07:46:30;5.65;;;2.70;;
81912;SDS011;71377;50.698;7.164;2023-07-31T07:48:57;4.28;;;2.78;;
81912;SDS011;71377;50.698;7.164;2023-07-31T07:51:26;7.15;;;2.88;;
81912;SDS011;71377;50.698;7.164;2023-07-31T07:53:52;7.30;;;2.97;;
81912;SDS011;71377;50.698;7.164;2023-07-31T07:56:19;7.70;;;3.22;;
81912;SDS011;71377;50.698;7.164;2023-07-31T07:58:48;4.50;;;2.95;;
81912;SDS011;71377;50.698;7.164;2023-07-31T08:01:16;6.65;;;3.10;;
81912;SDS011;71377;50.698;7.164;2023-07-31T08:03:42;6.63;;;3.08;;
81912;SDS011;71377;50.698;7.164;2023-07-31T08:06:09;7.30;;;3.10;;
81912;SDS011;71377;50.698;7.164;2023-07-31T08:08:37;6.20;;;3.03;;
81912;SDS011;71377;50.698;7.164;2023-07-31T08:11:03;6.95;;;3.40;;
81912;SDS011;71377;50.698;7.164;2023-07-31T08:13:30;7.18;;;3.13;;
81912;SDS011;71377;50.698;7.164;2023-07-31T08:15:57;6.25;;;3.13;;
81912;SDS011;71377;50.698;7.164;2023-07-31T08:18:23;6.88;;;2.85;;
81912;SDS011;71377;50.698;7.164;2023-07-31T08:20:50;6.07;;;2.83;;
81912;SDS011;71377;50.698;7.164;2023-07-31T08:23:17;6.63;;;2.83;;
81912;SDS011;71377;50.698;7.164;2023-07-31T08:25:44;5.93;;;2.70;;
81912;SDS011;71377;50.698;7.164;2023-07-31T08:28:11;7.50;;;2.78;;
81912;SDS011;71377;50.698;7.164;2023-07-31T08:30:37;5.00;;;2.70;;
81912;SDS011;71377;50.698;7.164;2023-07-31T08:33:04;5.57;;;2.70;;
81912;SDS011;71377;50.698;7.164;2023-07-31T08:35:31;5.70;;;2.80;;
81912;SDS011;71377;50.698;7.164;2023-07-31T08:37:58;7.50;;;2.60;;
81912;SDS011;71377;50.698;7.164;2023-07-31T08:40:24;7.65;;;2.90;;
81912;SDS011;71377;50.698;7.164;2023-07-31T08:42:53;5.65;;;2.72;;
81912;SDS011;71377;50.698;7.164;2023-07-31T08:45:22;6.28;;;2.88;;
81912;SDS011;71377;50.698;7.164;2023-07-31T08:47:50;10.93;;;3.05;;
81912;SDS011;71377;50.698;7.164;2023-07-31T08:50:19;5.07;;;2.65;;
81912;SDS011;71377;50.698;7.164;2023-07-31T08:52:47;5.57;;;2.53;;
81912;SDS011;71377;50.698;7.164;2023-07-31T08:55:15;6.15;;;2.95;;
81912;SDS011;71377;50.698;7.164;2023-07-31T08:57:42;9.13;;;4.63;;
81912;SDS011;71377;50.698;7.164;2023-07-31T09:00:09;5.78;;;2.80;;
81912;SDS011;71377;50.698;7.164;2023-07-31T09:02:38;5.95;;;2.55;;
81912;SDS011;71377;50.698;7.164;2023-07-31T09:05:12;8.77;;;2.75;;
81912;SDS011;71377;50.698;7.164;2023-07-31T09:07:38;7.60;;;2.90;;
81912;SDS011;71377;50.698;7.164;2023-07-31T09:10:06;5.88;;;3.00;;
81912;SDS011;71377;50.698;7.164;2023-07-31T09:12:33;4.60;;;2.83;;
81912;SDS011;71377;50.698;7.164;2023-07-31T09:15:00;4.95;;;2.90;;
81912;SDS011;71377;50.698;7.164;2023-07-31T09:17:31;7.63;;;2.67;;
81912;SDS011;71377;50.698;7.164;2023-07-31T09:20:18;10.55;;;2.65;;
81912;SDS011;71377;50.698;7.164;2023-07-31T09:22:47;9.20;;;2.92;;
81912;SDS011;71377;50.698;7.164;2023-07-31T09:25:21;8.95;;;3.13;;
81912;SDS011;71377;50.698;7.164;2023-07-31T09:28:02;6.43;;;3.30;;
81912;SDS011;71377;50.698;7.164;2023-07-31T09:30:31;7.18;;;2.75;;
81912;SDS011;71377;50.698;7.164;2023-07-31T09:33:09;7.07;;;2.90;;
81912;SDS011;71377;50.698;7.164;2023-07-31T09:35:35;7.00;;;3.38;;
81912;SDS011;71377;50.698;7.164;2023-07-31T09:38:06;7.28;;;2.97;;
81912;SDS011;71377;50.698;7.164;2023-07-31T09:40:35;6.65;;;3.13;;
81912;SDS011;71377;50.698;7.164;2023-07-31T09:43:04;8.35;;;2.80;;
81912;SDS011;71377;50.698;7.164;2023-07-31T09:45:35;6.20;;;2.60;;
81912;SDS011;71377;50.698;7.164;2023-07-31T09:48:11;5.88;;;3.05;;
81912;SDS011;71377;50.698;7.164;2023-07-31T09:50:39;7.20;;;3.00;;
81912;SDS011;71377;50.698;7.164;2023-07-31T09:53:08;8.20;;;3.10;;
81912;SDS011;71377;50.698;7.164;2023-07-31T09:55:36;6.18;;;3.00;;
81912;SDS011;71377;50.698;7.164;2023-07-31T09:58:05;10.85;;;3.33;;
81912;SDS011;71377;50.698;7.164;2023-07-31T10:00:33;12.20;;;3.17;;
81912;SDS011;71377;50.698;7.164;2023-07-31T10:03:01;8.65;;;3.13;;
81912;SDS011;71377;50.698;7.164;2023-07-31T10:05:35;5.90;;;3.22;;
81912;SDS011;71377;50.698;7.164;2023-07-31T10:08:04;7.85;;;2.65;;
81912;SDS011;71377;50.698;7.164;2023-07-31T10:10:32;5.03;;;2.58;;
81912;SDS011;71377;50.698;7.164;2023-07-31T10:13:02;11.07;;;3.00;;
81912;SDS011;71377;50.698;7.164;2023-07-31T10:15:31;5.32;;;2.70;;
81912;SDS011;71377;50.698;7.164;2023-07-31T10:17:58;4.50;;;2.58;;
81912;SDS011;71377;50.698;7.164;2023-07-31T10:20:25;5.90;;;2.33;;
81912;SDS011;71377;50.698;7.164;2023-07-31T10:22:54;4.20;;;2.10;;
81912;SDS011;71377;50.698;7.164;2023-07-31T10:25:21;5.47;;;2.13;;
81912;SDS011;71377;50.698;7.164;2023-07-31T10:27:52;3.65;;;1.98;;
81912;SDS011;71377;50.698;7.164;2023-07-31T10:30:22;2.67;;;1.90;;
81912;SDS011;71377;50.698;7.164;2023-07-31T10:32:54;5.85;;;2.15;;
81912;SDS011;71377;50.698;7.164;2023-07-31T10:35:22;2.75;;;1.60;;
81912;SDS011;71377;50.698;7.164;2023-07-31T10:37:49;3.92;;;1.98;;
81912;SDS011;71377;50.698;7.164;2023-07-31T10:40:16;5.38;;;1.80;;
81912;SDS011;71377;50.698;7.164;2023-07-31T10:42:50;1.88;;;1.48;;
81912;SDS011;71377;50.698;7.164;2023-07-31T10:48:22;3.58;;;1.80;;
81912;SDS011;71377;50.698;7.164;2023-07-31T10:50:50;2.05;;;1.48;;
81912;SDS011;71377;50.698;7.164;2023-07-31T10:53:25;3.90;;;1.80;;
81912;SDS011;71377;50.698;7.164;2023-07-31T10:56:03;2.97;;;1.30;;
81912;SDS011;71377;50.698;7.164;2023-07-31T10:58:31;5.03;;;1.55;;
81912;SDS011;71377;50.698;7.164;2023-07-31T11:01:00;2.47;;;1.25;;
81912;SDS011;71377;50.698;7.164;2023-07-31T11:06:12;3.35;;;1.20;;
81912;SDS011;71377;50.698;7.164;2023-07-31T11:08:50;2.40;;;1.30;;
81912;SDS011;71377;50.698;7.164;2023-07-31T11:13:46;2.38;;;1.20;;
81912;SDS011;71377;50.698;7.164;2023-07-31T11:16:16;2.97;;;1.30;;
81912;SDS011;71377;50.698;7.164;2023-07-31T11:18:44;1.33;;;1.17;;
81912;SDS011;71377;50.698;7.164;2023-07-31T11:23:45;3.13;;;1.50;;
81912;SDS011;71377;50.698;7.164;2023-07-31T11:26:13;2.30;;;1.13;;
81912;SDS011;71377;50.698;7.164;2023-07-31T11:28:40;1.33;;;1.20;;
81912;SDS011;71377;50.698;7.164;2023-07-31T11:31:09;3.40;;;1.42;;
81912;SDS011;71377;50.698;7.164;2023-07-31T11:33:37;2.10;;;1.30;;
81912;SDS011;71377;50.698;7.164;2023-07-31T11:36:03;1.25;;;1.00;;
81912;SDS011;71377;50.698;7.164;2023-07-31T11:38:32;2.08;;;1.08;;
81912;SDS011;71377;50.698;7.164;2023-07-31T11:41:00;3.03;;;1.40;;
81912;SDS011;71377;50.698;7.164;2023-07-31T11:43:29;4.68;;;1.20;;
81912;SDS011;71377;50.698;7.164;2023-07-31T11:45:56;1.45;;;1.10;;
81912;SDS011;71377;50.698;7.164;2023-07-31T11:48:24;2.72;;;1.00;;
81912;SDS011;71377;50.698;7.164;2023-07-31T11:50:53;1.80;;;1.20;;
81912;SDS011;71377;50.698;7.164;2023-07-31T11:56:01;2.10;;;1.13;;
81912;SDS011;71377;50.698;7.164;2023-07-31T11:58:30;4.65;;;1.20;;
81912;SDS011;71377;50.698;7.164;2023-07-31T12:00:59;2.67;;;1.05;;
81912;SDS011;71377;50.698;7.164;2023-07-31T12:03:27;1.27;;;0.98;;
81912;SDS011;71377;50.698;7.164;2023-07-31T12:05:54;2.67;;;1.25;;
81912;SDS011;71377;50.698;7.164;2023-07-31T12:08:21;2.08;;;1.10;;
81912;SDS011;71377;50.698;7.164;2023-07-31T12:10:52;2.15;;;1.10;;
81912;SDS011;71377;50.698;7.164;2023-07-31T12:13:21;3.15;;;1.20;;
81912;SDS011;71377;50.698;7.164;2023-07-31T12:15:53;1.85;;;1.00;;
81912;SDS011;71377;50.698;7.164;2023-07-31T12:18:22;2.47;;;1.33;;
81912;SDS011;71377;50.698;7.164;2023-07-31T12:20:49;1.85;;;1.33;;
81912;SDS011;71377;50.698;7.164;2023-07-31T12:23:21;3.40;;;1.48;;
81912;SDS011;71377;50.698;7.164;2023-07-31T12:26:11;1.50;;;1.10;;
81912;SDS011;71377;50.698;7.164;2023-07-31T12:31:10;3.50;;;1.58;;
81912;SDS011;71377;50.698;7.164;2023-07-31T12:33:43;2.07;;;1.53;;
81912;SDS011;71377;50.698;7.164;2023-07-31T12:36:11;3.75;;;2.20;;
81912;SDS011;71377;50.698;7.164;2023-07-31T12:38:40;3.00;;;2.13;;
81912;SDS011;71377;50.698;7.164;2023-07-31T12:41:07;4.40;;;2.30;;
81912;SDS011;71377;50.698;7.164;2023-07-31T12:43:37;5.72;;;2.20;;
81912;SDS011;71377;50.698;7.164;2023-07-31T12:46:06;4.25;;;2.30;;
81912;SDS011;71377;50.698;7.164;2023-07-31T12:48:36;3.97;;;2.30;;
81912;SDS011;71377;50.698;7.164;2023-07-31T12:51:04;3.72;;;2.28;;
81912;SDS011;71377;50.698;7.164;2023-07-31T12:53:31;4.05;;;2.53;;
81912;SDS011;71377;50.698;7.164;2023-07-31T12:55:57;3.92;;;2.35;;
81912;SDS011;71377;50.698;7.164;2023-07-31T12:58:27;5.05;;;2.42;;
81912;SDS011;71377;50.698;7.164;2023-07-31T13:00:53;3.95;;;2.50;;
81912;SDS011;71377;50.698;7.164;2023-07-31T13:03:20;4.32;;;2.22;;
81912;SDS011;71377;50.698;7.164;2023-07-31T13:05:46;5.85;;;2.63;;
81912;SDS011;71377;50.698;7.164;2023-07-31T13:08:14;3.70;;;2.40;;
81912;SDS011;71377;50.698;7.164;2023-07-31T13:10:42;3.03;;;2.42;;
81912;SDS011;71377;50.698;7.164;2023-07-31T13:13:09;3.92;;;2.25;;
81912;SDS011;71377;50.698;7.164;2023-07-31T13:15:36;4.28;;;2.60;;
81912;SDS011;71377;50.698;7.164;2023-07-31T13:18:04;3.53;;;2.63;;
81912;SDS011;71377;50.698;7.164;2023-07-31T13:20:30;4.63;;;2.65;;
81912;SDS011;71377;50.698;7.164;2023-07-31T13:22:57;3.55;;;2.58;;
81912;SDS011;71377;50.698;7.164;2023-07-31T13:25:23;3.42;;;2.40;;
81912;SDS011;71377;50.698;7.164;2023-07-31T13:27:49;6.10;;;2.40;;
81912;SDS011;71377;50.698;7.164;2023-07-31T13:30:17;3.60;;;2.40;;
81912;SDS011;71377;50.698;7.164;2023-07-31T13:32:44;3.65;;;2.53;;
81912;SDS011;71377;50.698;7.164;2023-07-31T13:35:10;2.72;;;2.22;;
81912;SDS011;71377;50.698;7.164;2023-07-31T13:37:38;2.75;;;1.92;;
81912;SDS011;71377;50.698;7.164;2023-07-31T13:40:05;2.17;;;1.88;;
81912;SDS011;71377;50.698;7.164;2023-07-31T13:42:32;1.98;;;1.70;;
81912;SDS011;71377;50.698;7.164;2023-07-31T13:44:59;2.80;;;1.63;;
81912;SDS011;71377;50.698;7.164;2023-07-31T13:47:28;3.22;;;1.40;;
81912;SDS011;71377;50.698;7.164;2023-07-31T13:49:55;2.50;;;1.50;;
81912;SDS011;71377;50.698;7.164;2023-07-31T13:52:21;2.50;;;1.60;;
81912;SDS011;71377;50.698;7.164;2023-07-31T13:54:48;2.20;;;1.58;;
81912;SDS011;71377;50.698;7.164;2023-07-31T13:57:14;2.13;;;1.60;;
81912;SDS011;71377;50.698;7.164;2023-07-31T13:59:41;2.72;;;1.90;;
81912;SDS011;71377;50.698;7.164;2023-07-31T14:02:08;4.28;;;1.70;;
81912;SDS011;71377;50.698;7.164;2023-07-31T14:04:34;2.00;;;1.58;;
81912;SDS011;71377;50.698;7.164;2023-07-31T14:07:01;3.03;;;1.58;;
81912;SDS011;71377;50.698;7.164;2023-07-31T14:09:27;1.73;;;1.50;;
81912;SDS011;71377;50.698;7.164;2023-07-31T14:11:55;2.47;;;1.42;;
81912;SDS011;71377;50.698;7.164;2023-07-31T14:14:21;3.03;;;1.45;;
81912;SDS011;71377;50.698;7.164;2023-07-31T14:16:47;1.45;;;1.30;;
81912;SDS011;71377;50.698;7.164;2023-07-31T14:19:14;1.80;;;1.48;;
81912;SDS011;71377;50.698;7.164;2023-07-31T14:21:42;3.03;;;1.13;;
81912;SDS011;71377;50.698;7.164;2023-07-31T14:24:19;1.95;;;1.20;;
81912;SDS011;71377;50.698;7.164;2023-07-31T14:26:46;1.63;;;1.00;;
81912;SDS011;71377;50.698;7.164;2023-07-31T14:29:12;2.78;;;1.23;;
81912;SDS011;71377;50.698;7.164;2023-07-31T14:31:38;3.10;;;1.40;;
81912;SDS011;71377;50.698;7.164;2023-07-31T14:34:05;1.98;;;1.25;;
81912;SDS011;71377;50.698;7.164;2023-07-31T14:36:31;1.80;;;1.42;;
81912;SDS011;71377;50.698;7.164;2023-07-31T14:38:58;5.95;;;1.33;;
81912;SDS011;71377;50.698;7.164;2023-07-31T14:41:26;2.45;;;1.48;;
81912;SDS011;71377;50.698;7.164;2023-07-31T14:43:52;3.22;;;1.40;;
81912;SDS011;71377;50.698;7.164;2023-07-31T14:46:20;2.03;;;1.30;;
81912;SDS011;71377;50.698;7.164;2023-07-31T14:48:46;2.08;;;1.40;;
81912;SDS011;71377;50.698;7.164;2023-07-31T14:51:14;1.52;;;1.30;;
81912;SDS011;71377;50.698;7.164;2023-07-31T14:53:40;1.40;;;1.30;;
81912;SDS011;71377;50.698;7.164;2023-07-31T14:56:08;1.55;;;1.10;;
81912;SDS011;71377;50.698;7.164;2023-07-31T14:58:34;2.17;;;1.40;;
81912;SDS011;71377;50.698;7.164;2023-07-31T15:01:01;2.50;;;1.30;;
81912;SDS011;71377;50.698;7.164;2023-07-31T15:03:27;1.30;;;1.00;;
81912;SDS011;71377;50.698;7.164;2023-07-31T15:05:55;2.65;;;1.30;;
81912;SDS011;71377;50.698;7.164;2023-07-31T15:08:21;1.10;;;1.00;;
81912;SDS011;71377;50.698;7.164;2023-07-31T15:10:48;4.93;;;1.40;;
81912;SDS011;71377;50.698;7.164;2023-07-31T15:13:15;2.95;;;1.33;;
81912;SDS011;71377;50.698;7.164;2023-07-31T15:15:42;2.90;;;1.60;;